Terminal Aerodrome Forecast
Issued by NWS Medford, OR

Home | Current Version | Previous Version | Text Only | Print | Product List | Glossary On
Versions: 1 2 3 4 5 6 7 8 9 10 11 12 13 14 15 16
000
FTUS46 KMFR 021746
TAFMFR
TAF
KMFR 021746Z 0218/0318 VRB03KT 1SM FU VCSH BKN018 BKN120
     FM022300 30010KT 1SM FU VCTS SCT020 SCT060CB BKN120
     FM030400 VRB03KT 3SM FU SCT120
     FM031300 VRB03KT 2SM FU BKN018=

USA.gov is the U.S. government's official web portal to all federal, state and local government web resources and services.